Terminal Aerodrome Forecast
Issued by NWS

Home | Current Version | Previous Version | Text Only | Print | Product List | Glossary On
Versions: 1 2 3 4 5 6 7 8 9 10 11 12 13 14 15 16 17 18 19 20 21
000
FTUS43 KIND 292330
TAFBMG
TAF
KBMG 292330Z 3000/3024 25008KT P6SM VCTS SCT070CB
     FM300200 24005KT P6SM FEW250
     FM301800 27009KT P6SM FEW120
      AMD LTD TO CLD VIS AND WIND 3001/3013=

USA.gov is the U.S. government's official web portal to all federal, state and local government web resources and services.